sensor_id;sensor_type;location;lat;lon;timestamp;pressure;altitude;pressure_sealevel;temperature;humidity
30073;BME280;16897;52.422;13.678;2024-01-27T00:01:36;102169.41;;;8.57;57.08
30073;BME280;16897;52.422;13.678;2024-01-27T00:05:37;102152.28;;;8.49;56.74
30073;BME280;16897;52.422;13.678;2024-01-27T00:09:39;102160.00;;;8.52;57.06
30073;BME280;16897;52.422;13.678;2024-01-27T00:13:41;102146.31;;;8.44;57.18
30073;BME280;16897;52.422;13.678;2024-01-27T00:17:43;102142.88;;;8.41;56.87
30073;BME280;16897;52.422;13.678;2024-01-27T00:21:45;102151.53;;;8.42;56.81
30073;BME280;16897;52.422;13.678;2024-01-27T00:25:46;102117.25;;;8.23;56.94
30073;BME280;16897;52.422;13.678;2024-01-27T00:29:47;102153.19;;;8.46;56.82
30073;BME280;16897;52.422;13.678;2024-01-27T00:33:49;102125.09;;;8.22;57.02
30073;BME280;16897;52.422;13.678;2024-01-27T00:37:51;102161.94;;;8.44;57.01
30073;BME280;16897;52.422;13.678;2024-01-27T00:41:52;102161.09;;;8.43;56.94
30073;BME280;16897;52.422;13.678;2024-01-27T00:45:56;102156.88;;;8.34;56.89
30073;BME280;16897;52.422;13.678;2024-01-27T00:49:57;102153.59;;;8.28;57.08
30073;BME280;16897;52.422;13.678;2024-01-27T00:53:59;102152.06;;;8.17;57.03
30073;BME280;16897;52.422;13.678;2024-01-27T00:58:01;102165.00;;;8.20;56.79
30073;BME280;16897;52.422;13.678;2024-01-27T01:02:02;102185.63;;;8.30;56.82
30073;BME280;16897;52.422;13.678;2024-01-27T01:06:04;102148.84;;;8.08;56.79
30073;BME280;16897;52.422;13.678;2024-01-27T01:10:06;102186.50;;;8.29;56.98
30073;BME280;16897;52.422;13.678;2024-01-27T01:14:08;102185.81;;;8.22;56.92
30073;BME280;16897;52.422;13.678;2024-01-27T01:18:09;102204.94;;;8.19;56.76
30073;BME280;16897;52.422;13.678;2024-01-27T01:22:11;102226.53;;;8.25;56.84
30073;BME280;16897;52.422;13.678;2024-01-27T01:26:12;102211.91;;;8.17;56.94
30073;BME280;16897;52.422;13.678;2024-01-27T01:30:13;102220.41;;;8.26;56.91
30073;BME280;16897;52.422;13.678;2024-01-27T01:34:15;102200.63;;;8.18;56.87
30073;BME280;16897;52.422;13.678;2024-01-27T01:38:16;102229.97;;;8.25;56.93
30073;BME280;16897;52.422;13.678;2024-01-27T01:42:18;102241.28;;;8.24;56.88
30073;BME280;16897;52.422;13.678;2024-01-27T01:46:22;102235.25;;;8.22;56.96
30073;BME280;16897;52.422;13.678;2024-01-27T01:50:25;102232.66;;;8.20;56.92
30073;BME280;16897;52.422;13.678;2024-01-27T01:54:26;102209.66;;;8.02;56.99
30073;BME280;16897;52.422;13.678;2024-01-27T01:58:29;102225.03;;;8.13;56.68
30073;BME280;16897;52.422;13.678;2024-01-27T02:02:35;102213.09;;;8.03;56.67
30073;BME280;16897;52.422;13.678;2024-01-27T02:06:36;102248.25;;;8.22;56.82
30073;BME280;16897;52.422;13.678;2024-01-27T02:10:38;102266.41;;;8.25;56.83
30073;BME280;16897;52.422;13.678;2024-01-27T02:14:39;102269.00;;;8.25;56.91
30073;BME280;16897;52.422;13.678;2024-01-27T02:18:41;102263.88;;;8.22;56.67
30073;BME280;16897;52.422;13.678;2024-01-27T02:22:42;102249.16;;;8.21;56.96
30073;BME280;16897;52.422;13.678;2024-01-27T02:26:44;102249.25;;;8.15;56.71
30073;BME280;16897;52.422;13.678;2024-01-27T02:30:45;102256.22;;;8.14;56.74
30073;BME280;16897;52.422;13.678;2024-01-27T02:34:46;102250.31;;;8.06;56.80
30073;BME280;16897;52.422;13.678;2024-01-27T02:38:48;102274.47;;;8.13;56.82
30073;BME280;16897;52.422;13.678;2024-01-27T02:42:49;102237.53;;;7.95;56.84
30073;BME280;16897;52.422;13.678;2024-01-27T02:46:50;102269.28;;;8.13;56.68
30073;BME280;16897;52.422;13.678;2024-01-27T02:50:52;102273.66;;;8.09;56.95
30073;BME280;16897;52.422;13.678;2024-01-27T02:54:54;102284.06;;;8.09;56.59
30073;BME280;16897;52.422;13.678;2024-01-27T02:58:55;102282.50;;;8.01;56.88
30073;BME280;16897;52.422;13.678;2024-01-27T03:02:56;102282.38;;;8.07;56.82
30073;BME280;16897;52.422;13.678;2024-01-27T03:06:59;102234.25;;;7.86;56.91
30073;BME280;16897;52.422;13.678;2024-01-27T03:11:01;102281.72;;;7.97;56.89
30073;BME280;16897;52.422;13.678;2024-01-27T03:15:02;102267.09;;;7.91;56.78
30073;BME280;16897;52.422;13.678;2024-01-27T03:19:04;102300.50;;;8.13;56.79
30073;BME280;16897;52.422;13.678;2024-01-27T03:23:06;102303.97;;;8.12;56.75
30073;BME280;16897;52.422;13.678;2024-01-27T03:27:07;102288.50;;;8.04;56.88
30073;BME280;16897;52.422;13.678;2024-01-27T03:31:08;102297.25;;;8.00;56.63
30073;BME280;16897;52.422;13.678;2024-01-27T03:35:10;102295.53;;;7.99;56.79
30073;BME280;16897;52.422;13.678;2024-01-27T03:39:11;102297.28;;;7.98;56.77
30073;BME280;16897;52.422;13.678;2024-01-27T03:43:15;102315.22;;;8.14;56.80
30073;BME280;16897;52.422;13.678;2024-01-27T03:47:18;102330.81;;;8.14;56.66
30073;BME280;16897;52.422;13.678;2024-01-27T03:51:19;102324.06;;;8.05;56.80
30073;BME280;16897;52.422;13.678;2024-01-27T03:55:21;102334.47;;;8.04;56.61
30073;BME280;16897;52.422;13.678;2024-01-27T03:59:22;102299.38;;;7.80;56.68
30073;BME280;16897;52.422;13.678;2024-01-27T04:03:24;102306.19;;;7.85;56.71
30073;BME280;16897;52.422;13.678;2024-01-27T04:07:25;102340.66;;;7.96;56.61
30073;BME280;16897;52.422;13.678;2024-01-27T04:11:27;102301.19;;;7.76;56.76
30073;BME280;16897;52.422;13.678;2024-01-27T04:15:28;102354.44;;;8.02;56.80
30073;BME280;16897;52.422;13.678;2024-01-27T04:19:30;102326.28;;;7.77;56.68
30073;BME280;16897;52.422;13.678;2024-01-27T04:23:31;102317.88;;;7.61;56.70
30073;BME280;16897;52.422;13.678;2024-01-27T04:27:38;102369.63;;;7.78;56.61
30073;BME280;16897;52.422;13.678;2024-01-27T04:31:43;102385.91;;;7.88;56.75
30073;BME280;16897;52.422;13.678;2024-01-27T04:35:45;102393.00;;;7.80;56.57
30073;BME280;16897;52.422;13.678;2024-01-27T04:39:47;102387.09;;;7.70;56.57
30073;BME280;16897;52.422;13.678;2024-01-27T04:43:49;102426.78;;;7.80;56.72
30073;BME280;16897;52.422;13.678;2024-01-27T04:47:50;102429.50;;;7.75;56.89
30073;BME280;16897;52.422;13.678;2024-01-27T04:51:52;102441.56;;;7.78;56.86
30073;BME280;16897;52.422;13.678;2024-01-27T04:55:53;102413.97;;;7.70;56.61
30073;BME280;16897;52.422;13.678;2024-01-27T04:59:55;102382.13;;;7.54;56.81
30073;BME280;16897;52.422;13.678;2024-01-27T05:03:56;102415.69;;;7.70;56.83
30073;BME280;16897;52.422;13.678;2024-01-27T05:07:57;102449.34;;;7.78;56.73
30073;BME280;16897;52.422;13.678;2024-01-27T05:12:00;102453.72;;;7.77;56.88
30073;BME280;16897;52.422;13.678;2024-01-27T05:16:01;102408.25;;;7.48;56.69
30073;BME280;16897;52.422;13.678;2024-01-27T05:20:03;102467.56;;;7.78;56.77
30073;BME280;16897;52.422;13.678;2024-01-27T05:24:05;102460.66;;;7.78;56.83
30073;BME280;16897;52.422;13.678;2024-01-27T05:28:07;102469.25;;;7.82;56.86
30073;BME280;16897;52.422;13.678;2024-01-27T05:32:08;102474.50;;;7.79;56.65
30073;BME280;16897;52.422;13.678;2024-01-27T05:36:10;102463.25;;;7.76;56.73
30073;BME280;16897;52.422;13.678;2024-01-27T05:40:12;102452.84;;;7.78;56.78
30073;BME280;16897;52.422;13.678;2024-01-27T05:44:13;102462.31;;;7.82;56.63
30073;BME280;16897;52.422;13.678;2024-01-27T05:48:14;102468.34;;;7.84;56.65
30073;BME280;16897;52.422;13.678;2024-01-27T05:52:16;102434.03;;;7.61;56.68
30073;BME280;16897;52.422;13.678;2024-01-27T05:56:17;102453.69;;;7.79;56.79
30073;BME280;16897;52.422;13.678;2024-01-27T06:00:21;102455.50;;;7.75;56.67
30073;BME280;16897;52.422;13.678;2024-01-27T06:04:23;102487.34;;;7.89;56.69
30073;BME280;16897;52.422;13.678;2024-01-27T06:08:24;102491.69;;;7.87;56.65
30073;BME280;16897;52.422;13.678;2024-01-27T06:12:25;102499.56;;;7.84;56.82
30073;BME280;16897;52.422;13.678;2024-01-27T06:16:27;102513.34;;;7.89;56.69
30073;BME280;16897;52.422;13.678;2024-01-27T06:20:28;102504.75;;;7.83;56.78
30073;BME280;16897;52.422;13.678;2024-01-27T06:24:30;102532.41;;;7.91;56.69
30073;BME280;16897;52.422;13.678;2024-01-27T06:28:31;102523.75;;;7.89;56.67
30073;BME280;16897;52.422;13.678;2024-01-27T06:32:33;102534.91;;;7.97;56.80
30073;BME280;16897;52.422;13.678;2024-01-27T06:36:34;102525.56;;;7.84;56.86
30073;BME280;16897;52.422;13.678;2024-01-27T06:40:36;102544.38;;;8.02;56.75
30073;BME280;16897;52.422;13.678;2024-01-27T06:44:37;102548.63;;;8.07;56.83
30073;BME280;16897;52.422;13.678;2024-01-27T06:48:39;102549.53;;;8.05;56.65
30073;BME280;16897;52.422;13.678;2024-01-27T06:52:40;102564.22;;;8.07;56.83
30073;BME280;16897;52.422;13.678;2024-01-27T06:56:47;102567.66;;;8.11;56.67
30073;BME280;16897;52.422;13.678;2024-01-27T07:00:49;102576.31;;;8.10;56.67
30073;BME280;16897;52.422;13.678;2024-01-27T07:04:50;102590.22;;;8.09;56.90
30073;BME280;16897;52.422;13.678;2024-01-27T07:08:52;102582.47;;;8.06;56.65
30073;BME280;16897;52.422;13.678;2024-01-27T07:12:53;102597.97;;;8.13;56.70
30073;BME280;16897;52.422;13.678;2024-01-27T07:16:55;102579.88;;;8.06;56.88
30073;BME280;16897;52.422;13.678;2024-01-27T07:20:56;102554.91;;;7.94;56.67
30073;BME280;16897;52.422;13.678;2024-01-27T07:25:00;102619.50;;;8.25;56.66
30073;BME280;16897;52.422;13.678;2024-01-27T07:29:02;102600.47;;;8.19;56.67
30073;BME280;16897;52.422;13.678;2024-01-27T07:33:04;102570.44;;;7.98;56.69
30073;BME280;16897;52.422;13.678;2024-01-27T07:37:05;102596.34;;;8.06;56.76
30073;BME280;16897;52.422;13.678;2024-01-27T07:41:07;102628.16;;;8.25;56.66
30073;BME280;16897;52.422;13.678;2024-01-27T07:45:08;102604.13;;;8.08;56.80
30073;BME280;16897;52.422;13.678;2024-01-27T07:49:12;102650.63;;;8.32;56.85
30073;BME280;16897;52.422;13.678;2024-01-27T07:53:16;102638.63;;;8.20;56.68
30073;BME280;16897;52.422;13.678;2024-01-27T07:57:18;102647.16;;;8.32;56.92
30073;BME280;16897;52.422;13.678;2024-01-27T08:01:19;102640.22;;;8.31;56.70
30073;BME280;16897;52.422;13.678;2024-01-27T08:05:21;102659.22;;;8.37;56.61
30073;BME280;16897;52.422;13.678;2024-01-27T08:09:22;102663.53;;;8.37;56.88
30073;BME280;16897;52.422;13.678;2024-01-27T08:13:25;102650.53;;;8.37;56.74
30073;BME280;16897;52.422;13.678;2024-01-27T08:17:26;102663.53;;;8.41;56.70
30073;BME280;16897;52.422;13.678;2024-01-27T08:21:28;102664.38;;;8.44;56.79
30073;BME280;16897;52.422;13.678;2024-01-27T08:25:29;102654.03;;;8.37;56.70
30073;BME280;16897;52.422;13.678;2024-01-27T08:29:31;102672.06;;;8.50;56.78
30073;BME280;16897;52.422;13.678;2024-01-27T08:33:33;102668.59;;;8.51;56.91
30073;BME280;16897;52.422;13.678;2024-01-27T08:37:34;102675.53;;;8.52;56.89
30073;BME280;16897;52.422;13.678;2024-01-27T08:41:40;102662.50;;;8.53;56.80
30073;BME280;16897;52.422;13.678;2024-01-27T08:45:42;102671.91;;;8.60;56.69
30073;BME280;16897;52.422;13.678;2024-01-27T08:49:43;102674.50;;;8.62;56.86
30073;BME280;16897;52.422;13.678;2024-01-27T08:53:44;102676.25;;;8.60;56.96
30073;BME280;16897;52.422;13.678;2024-01-27T08:57:52;102675.34;;;8.62;56.81
30073;BME280;16897;52.422;13.678;2024-01-27T09:01:53;102660.75;;;8.52;56.93
30073;BME280;16897;52.422;13.678;2024-01-27T09:05:55;102679.72;;;8.62;57.02
30073;BME280;16897;52.422;13.678;2024-01-27T09:09:56;102707.19;;;8.81;56.72
30073;BME280;16897;52.422;13.678;2024-01-27T09:13:58;102712.34;;;8.84;56.96
30073;BME280;16897;52.422;13.678;2024-01-27T09:17:59;102721.84;;;8.89;56.88
30073;BME280;16897;52.422;13.678;2024-01-27T09:22:01;102719.25;;;8.87;56.72
30073;BME280;16897;52.422;13.678;2024-01-27T09:26:02;102722.72;;;8.88;56.85
30073;BME280;16897;52.422;13.678;2024-01-27T09:30:05;102732.13;;;8.96;56.94
30073;BME280;16897;52.422;13.678;2024-01-27T09:34:06;102738.22;;;8.95;56.77
30073;BME280;16897;52.422;13.678;2024-01-27T09:38:08;102751.13;;;9.03;56.71
30073;BME280;16897;52.422;13.678;2024-01-27T09:42:16;102745.94;;;9.01;56.89
30073;BME280;16897;52.422;13.678;2024-01-27T09:46:22;102731.25;;;8.97;56.86
30073;BME280;16897;52.422;13.678;2024-01-27T09:50:23;102739.03;;;8.99;56.89
30073;BME280;16897;52.422;13.678;2024-01-27T09:54:25;102701.06;;;8.82;56.84
30073;BME280;16897;52.422;13.678;2024-01-27T09:58:29;102745.88;;;9.06;56.80
30073;BME280;16897;52.422;13.678;2024-01-27T10:02:31;102766.53;;;9.18;56.58
30073;BME280;16897;52.422;13.678;2024-01-27T10:06:34;102776.00;;;9.22;56.68
30073;BME280;16897;52.422;13.678;2024-01-27T10:10:35;102766.53;;;9.18;56.87
30073;BME280;16897;52.422;13.678;2024-01-27T10:14:40;102721.75;;;8.93;56.85
30073;BME280;16897;52.422;13.678;2024-01-27T10:18:42;102782.97;;;9.20;56.84
30073;BME280;16897;52.422;13.678;2024-01-27T10:22:44;102763.94;;;9.17;56.74
30073;BME280;16897;52.422;13.678;2024-01-27T10:26:46;102767.44;;;9.16;56.93
30073;BME280;16897;52.422;13.678;2024-01-27T10:30:49;102782.06;;;9.24;56.78
30073;BME280;16897;52.422;13.678;2024-01-27T10:35:04;102768.13;;;9.25;56.76
30073;BME280;16897;52.422;13.678;2024-01-27T10:39:22;102781.06;;;9.31;56.74
30073;BME280;16897;52.422;13.678;2024-01-27T10:43:25;102764.69;;;9.23;56.81
30073;BME280;16897;52.422;13.678;2024-01-27T10:47:27;102766.38;;;9.27;56.82
30073;BME280;16897;52.422;13.678;2024-01-27T10:51:30;102743.16;;;9.14;56.78
30073;BME280;16897;52.422;13.678;2024-01-27T10:55:33;102769.91;;;9.23;56.65
30073;BME280;16897;52.422;13.678;2024-01-27T10:59:36;102800.06;;;9.40;56.81
30073;BME280;16897;52.422;13.678;2024-01-27T11:03:40;102805.25;;;9.41;56.79
30073;BME280;16897;52.422;13.678;2024-01-27T11:07:42;102761.22;;;9.23;56.81
30073;BME280;16897;52.422;13.678;2024-01-27T11:11:44;102794.69;;;9.47;56.64
30073;BME280;16897;52.422;13.678;2024-01-27T11:15:53;102799.91;;;9.47;56.66
30073;BME280;16897;52.422;13.678;2024-01-27T11:19:56;102799.88;;;9.50;56.81
30073;BME280;16897;52.422;13.678;2024-01-27T11:24:00;102811.19;;;9.51;56.71
30073;BME280;16897;52.422;13.678;2024-01-27T11:28:10;102747.34;;;9.22;56.68
30073;BME280;16897;52.422;13.678;2024-01-27T11:32:12;102797.34;;;9.46;56.63
30073;BME280;16897;52.422;13.678;2024-01-27T11:36:23;102796.44;;;9.48;56.62
30073;BME280;16897;52.422;13.678;2024-01-27T11:40:25;102792.13;;;9.46;56.84
30073;BME280;16897;52.422;13.678;2024-01-27T11:44:27;102827.44;;;9.65;56.67
30073;BME280;16897;52.422;13.678;2024-01-27T11:48:28;102823.16;;;9.61;56.74
30073;BME280;16897;52.422;13.678;2024-01-27T11:52:31;102836.97;;;9.68;56.69
30073;BME280;16897;52.422;13.678;2024-01-27T11:56:32;102814.56;;;9.56;56.77
30073;BME280;16897;52.422;13.678;2024-01-27T12:00:34;102827.50;;;9.62;56.60
30073;BME280;16897;52.422;13.678;2024-01-27T12:04:35;102807.66;;;9.52;56.80
30073;BME280;16897;52.422;13.678;2024-01-27T12:08:37;102842.97;;;9.71;56.78
30073;BME280;16897;52.422;13.678;2024-01-27T12:12:39;102840.34;;;9.73;56.79
30073;BME280;16897;52.422;13.678;2024-01-27T12:16:40;102849.88;;;9.75;56.60
30073;BME280;16897;52.422;13.678;2024-01-27T12:20:42;102861.16;;;9.78;56.62
30073;BME280;16897;52.422;13.678;2024-01-27T12:24:44;102866.41;;;9.74;56.74
30073;BME280;16897;52.422;13.678;2024-01-27T12:28:46;102839.69;;;9.60;56.70
30073;BME280;16897;52.422;13.678;2024-01-27T12:32:48;102859.66;;;9.61;56.59
30073;BME280;16897;52.422;13.678;2024-01-27T12:36:50;102876.88;;;9.73;56.64
30073;BME280;16897;52.422;13.678;2024-01-27T12:40:53;102888.16;;;9.73;56.59
30073;BME280;16897;52.422;13.678;2024-01-27T12:44:55;102889.00;;;9.75;56.54
30073;BME280;16897;52.422;13.678;2024-01-27T12:48:56;102861.47;;;9.58;56.77
30073;BME280;16897;52.422;13.678;2024-01-27T12:52:57;102851.94;;;9.57;56.76
30073;BME280;16897;52.422;13.678;2024-01-27T12:56:59;102879.56;;;9.68;56.56
30073;BME280;16897;52.422;13.678;2024-01-27T13:01:03;102862.44;;;9.52;56.55
30073;BME280;16897;52.422;13.678;2024-01-27T13:05:04;102890.88;;;9.67;56.63
30073;BME280;16897;52.422;13.678;2024-01-27T13:09:06;102885.72;;;9.64;56.79
30073;BME280;16897;52.422;13.678;2024-01-27T13:13:08;102899.50;;;9.72;56.66
30073;BME280;16897;52.422;13.678;2024-01-27T13:17:09;102862.50;;;9.49;56.76
30073;BME280;16897;52.422;13.678;2024-01-27T13:21:11;102880.53;;;9.63;56.69
30073;BME280;16897;52.422;13.678;2024-01-27T13:25:13;102900.28;;;9.78;56.70
30073;BME280;16897;52.422;13.678;2024-01-27T13:29:14;102887.25;;;9.78;56.55
30073;BME280;16897;52.422;13.678;2024-01-27T13:33:16;102866.63;;;9.61;56.68
30073;BME280;16897;52.422;13.678;2024-01-27T13:37:17;102866.63;;;9.62;56.54
30073;BME280;16897;52.422;13.678;2024-01-27T13:41:19;102907.16;;;9.83;56.47
30073;BME280;16897;52.422;13.678;2024-01-27T13:45:21;102894.28;;;9.72;56.67
30073;BME280;16897;52.422;13.678;2024-01-27T13:49:23;102900.44;;;9.68;56.63
30073;BME280;16897;52.422;13.678;2024-01-27T13:53:24;102890.97;;;9.61;56.69
30073;BME280;16897;52.422;13.678;2024-01-27T13:57:26;102909.84;;;9.77;56.54
30073;BME280;16897;52.422;13.678;2024-01-27T14:01:27;102881.31;;;9.66;56.42
30073;BME280;16897;52.422;13.678;2024-01-27T14:05:29;102902.19;;;9.68;56.62
30073;BME280;16897;52.422;13.678;2024-01-27T14:09:31;102909.03;;;9.75;56.67
30073;BME280;16897;52.422;13.678;2024-01-27T14:13:32;102921.06;;;9.84;56.57
30073;BME280;16897;52.422;13.678;2024-01-27T14:17:34;102882.28;;;9.61;56.48
30073;BME280;16897;52.422;13.678;2024-01-27T14:21:37;102906.44;;;9.73;56.38
30073;BME280;16897;52.422;13.678;2024-01-27T14:25:40;102877.91;;;9.63;56.35
30073;BME280;16897;52.422;13.678;2024-01-27T14:29:41;102902.13;;;9.72;56.53
30073;BME280;16897;52.422;13.678;2024-01-27T14:33:43;102921.13;;;9.81;56.30
30073;BME280;16897;52.422;13.678;2024-01-27T14:37:44;102929.72;;;9.86;56.42
30073;BME280;16897;52.422;13.678;2024-01-27T14:41:46;102910.75;;;9.76;56.54
30073;BME280;16897;52.422;13.678;2024-01-27T14:45:47;102929.72;;;9.86;56.50
30073;BME280;16897;52.422;13.678;2024-01-27T14:49:48;102908.25;;;9.68;56.49
30073;BME280;16897;52.422;13.678;2024-01-27T14:53:50;102938.47;;;9.82;56.29
30073;BME280;16897;52.422;13.678;2024-01-27T14:57:51;102932.53;;;9.73;56.40
30073;BME280;16897;52.422;13.678;2024-01-27T15:01:53;102956.50;;;9.95;56.33
30073;BME280;16897;52.422;13.678;2024-01-27T15:05:55;102939.31;;;9.84;56.42
30073;BME280;16897;52.422;13.678;2024-01-27T15:09:56;102942.78;;;9.86;56.29
30073;BME280;16897;52.422;13.678;2024-01-27T15:13:58;102935.16;;;9.72;56.28
30073;BME280;16897;52.422;13.678;2024-01-27T15:17:59;102969.72;;;9.86;56.41
30073;BME280;16897;52.422;13.678;2024-01-27T15:22:03;102981.78;;;9.93;56.40
30073;BME280;16897;52.422;13.678;2024-01-27T15:26:05;102982.72;;;9.89;56.41
30073;BME280;16897;52.422;13.678;2024-01-27T15:30:08;102982.72;;;9.88;56.40
30073;BME280;16897;52.422;13.678;2024-01-27T15:34:09;102982.72;;;9.88;56.30
30073;BME280;16897;52.422;13.678;2024-01-27T15:38:11;102981.06;;;9.84;56.30
30073;BME280;16897;52.422;13.678;2024-01-27T15:42:12;102956.16;;;9.64;56.35
30073;BME280;16897;52.422;13.678;2024-01-27T15:46:15;102968.31;;;9.67;56.26
30073;BME280;16897;52.422;13.678;2024-01-27T15:50:17;103000.22;;;9.83;56.29
30073;BME280;16897;52.422;13.678;2024-01-27T15:54:20;102998.50;;;9.82;56.27
30073;BME280;16897;52.422;13.678;2024-01-27T15:58:21;102990.69;;;9.80;56.19
30073;BME280;16897;52.422;13.678;2024-01-27T16:02:23;103005.53;;;9.78;56.28
30073;BME280;16897;52.422;13.678;2024-01-27T16:06:24;103009.91;;;9.74;56.22
30073;BME280;16897;52.422;13.678;2024-01-27T16:10:26;103023.75;;;9.80;56.37
30073;BME280;16897;52.422;13.678;2024-01-27T16:14:27;103001.47;;;9.56;56.27
30073;BME280;16897;52.422;13.678;2024-01-27T16:18:29;103034.28;;;9.73;56.30
30073;BME280;16897;52.422;13.678;2024-01-27T16:22:30;103015.31;;;9.61;56.33
30073;BME280;16897;52.422;13.678;2024-01-27T16:26:32;103028.34;;;9.62;56.17
30073;BME280;16897;52.422;13.678;2024-01-27T16:30:33;103038.78;;;9.62;56.22
30073;BME280;16897;52.422;13.678;2024-01-27T16:34:34;103032.78;;;9.57;56.11
30073;BME280;16897;52.422;13.678;2024-01-27T16:38:36;103036.28;;;9.55;56.31
30073;BME280;16897;52.422;13.678;2024-01-27T16:42:37;103044.09;;;9.56;56.31
30073;BME280;16897;52.422;13.678;2024-01-27T16:46:39;103038.03;;;9.52;56.14
30073;BME280;16897;52.422;13.678;2024-01-27T16:50:44;103026.91;;;9.41;56.18
30073;BME280;16897;52.422;13.678;2024-01-27T16:54:46;103036.47;;;9.41;56.35
30073;BME280;16897;52.422;13.678;2024-01-27T16:58:47;103020.97;;;9.30;56.19
30073;BME280;16897;52.422;13.678;2024-01-27T17:02:52;103036.56;;;9.35;56.31
30073;BME280;16897;52.422;13.678;2024-01-27T17:06:54;103028.78;;;9.28;56.20
30073;BME280;16897;52.422;13.678;2024-01-27T17:10:55;103008.16;;;9.12;56.02
30073;BME280;16897;52.422;13.678;2024-01-27T17:14:57;103016.81;;;9.14;56.27
30073;BME280;16897;52.422;13.678;2024-01-27T17:18:58;103040.97;;;9.29;56.27
30073;BME280;16897;52.422;13.678;2024-01-27T17:23:00;103043.56;;;9.28;56.13
30073;BME280;16897;52.422;13.678;2024-01-27T17:27:01;103031.53;;;9.21;56.14
30073;BME280;16897;52.422;13.678;2024-01-27T17:31:03;103044.56;;;9.19;56.18
30073;BME280;16897;52.422;13.678;2024-01-27T17:35:05;103012.72;;;8.94;56.22
30073;BME280;16897;52.422;13.678;2024-01-27T17:39:08;103049.91;;;9.08;56.03
30073;BME280;16897;52.422;13.678;2024-01-27T17:43:10;103018.88;;;8.85;55.98
30073;BME280;16897;52.422;13.678;2024-01-27T17:47:11;103050.06;;;8.95;55.85
30073;BME280;16897;52.422;13.678;2024-01-27T17:51:13;103057.94;;;8.89;56.01
30073;BME280;16897;52.422;13.678;2024-01-27T17:55:14;103067.53;;;8.86;56.18
30073;BME280;16897;52.422;13.678;2024-01-27T17:59:15;103064.16;;;8.74;56.05
30073;BME280;16897;52.422;13.678;2024-01-27T18:03:17;103073.72;;;8.72;56.16
30073;BME280;16897;52.422;13.678;2024-01-27T18:07:18;103067.75;;;8.62;56.15
30073;BME280;16897;52.422;13.678;2024-01-27T18:11:19;103087.75;;;8.61;56.22
30073;BME280;16897;52.422;13.678;2024-01-27T18:15:21;103068.75;;;8.49;56.05
30073;BME280;16897;52.422;13.678;2024-01-27T18:19:23;103051.47;;;8.40;56.12
30073;BME280;16897;52.422;13.678;2024-01-27T18:23:26;103062.75;;;8.40;56.26
30073;BME280;16897;52.422;13.678;2024-01-27T18:27:27;103066.19;;;8.36;56.08
30073;BME280;16897;52.422;13.678;2024-01-27T18:31:29;103050.72;;;8.19;56.23
30073;BME280;16897;52.422;13.678;2024-01-27T18:35:30;103068.03;;;8.27;56.01
30073;BME280;16897;52.422;13.678;2024-01-27T18:39:32;103087.97;;;8.29;56.04
30073;BME280;16897;52.422;13.678;2024-01-27T18:43:33;103065.50;;;8.14;56.22
30073;BME280;16897;52.422;13.678;2024-01-27T18:47:35;103111.38;;;8.32;56.03
30073;BME280;16897;52.422;13.678;2024-01-27T18:51:40;103106.19;;;8.26;56.23
30073;BME280;16897;52.422;13.678;2024-01-27T18:55:43;103089.81;;;8.07;56.12
30073;BME280;16897;52.422;13.678;2024-01-27T18:59:46;103129.63;;;8.23;55.99
30073;BME280;16897;52.422;13.678;2024-01-27T19:03:51;103123.63;;;8.16;56.01
30073;BME280;16897;52.422;13.678;2024-01-27T19:07:52;103125.41;;;8.07;55.94
30073;BME280;16897;52.422;13.678;2024-01-27T19:11:53;103132.34;;;8.06;56.07
30073;BME280;16897;52.422;13.678;2024-01-27T19:15:55;103128.13;;;7.91;56.13
30073;BME280;16897;52.422;13.678;2024-01-27T19:19:56;103125.53;;;7.87;56.12
30073;BME280;16897;52.422;13.678;2024-01-27T19:23:58;103096.16;;;7.65;55.79
30073;BME280;16897;52.422;13.678;2024-01-27T19:28:00;103137.69;;;7.80;56.00
30073;BME280;16897;52.422;13.678;2024-01-27T19:32:01;103154.19;;;7.74;56.17
30073;BME280;16897;52.422;13.678;2024-01-27T19:36:03;103136.94;;;7.57;56.00
30073;BME280;16897;52.422;13.678;2024-01-27T19:40:05;103146.44;;;7.58;55.89
30073;BME280;16897;52.422;13.678;2024-01-27T19:44:07;103130.91;;;7.48;55.96
30073;BME280;16897;52.422;13.678;2024-01-27T19:48:09;103131.75;;;7.44;56.06
30073;BME280;16897;52.422;13.678;2024-01-27T19:52:10;103154.25;;;7.54;55.93
30073;BME280;16897;52.422;13.678;2024-01-27T19:56:12;103130.91;;;7.36;56.16
30073;BME280;16897;52.422;13.678;2024-01-27T20:00:14;103143.03;;;7.42;56.23
30073;BME280;16897;52.422;13.678;2024-01-27T20:04:18;103132.66;;;7.34;56.04
30073;BME280;16897;52.422;13.678;2024-01-27T20:08:20;103156.06;;;7.40;56.07
30073;BME280;16897;52.422;13.678;2024-01-27T20:12:21;103150.00;;;7.35;55.86
30073;BME280;16897;52.422;13.678;2024-01-27T20:16:23;103144.81;;;7.26;55.92
30073;BME280;16897;52.422;13.678;2024-01-27T20:20:24;103146.53;;;7.21;56.15
30073;BME280;16897;52.422;13.678;2024-01-27T20:24:27;103156.09;;;7.22;56.08
30073;BME280;16897;52.422;13.678;2024-01-27T20:28:30;103143.13;;;7.03;56.14
30073;BME280;16897;52.422;13.678;2024-01-27T20:32:31;103169.09;;;7.11;56.08
30073;BME280;16897;52.422;13.678;2024-01-27T20:36:32;103169.97;;;7.04;56.05
30073;BME280;16897;52.422;13.678;2024-01-27T20:40:34;103169.97;;;6.87;55.83
30073;BME280;16897;52.422;13.678;2024-01-27T20:44:36;103200.28;;;6.83;55.68
30073;BME280;16897;52.422;13.678;2024-01-27T20:48:37;103198.53;;;6.62;55.80
30073;BME280;16897;52.422;13.678;2024-01-27T20:52:39;103198.53;;;6.59;55.92
30073;BME280;16897;52.422;13.678;2024-01-27T20:56:41;103198.50;;;6.53;56.07
30073;BME280;16897;52.422;13.678;2024-01-27T21:00:42;103155.19;;;6.26;55.96
30073;BME280;16897;52.422;13.678;2024-01-27T21:04:43;103184.66;;;6.36;56.07